sensor_id;sensor_type;location;lat;lon;timestamp;P1;durP1;ratioP1;P2;durP2;ratioP2
44026;SDS011;29696;55.698;37.460;2023-04-03T00:00:58;53.27;;;29.13;;
44026;SDS011;29696;55.698;37.460;2023-04-03T00:03:25;44.40;;;28.73;;
44026;SDS011;29696;55.698;37.460;2023-04-03T00:05:51;47.23;;;34.07;;
44026;SDS011;29696;55.698;37.460;2023-04-03T00:08:18;56.50;;;34.67;;
44026;SDS011;29696;55.698;37.460;2023-04-03T00:10:44;58.63;;;35.60;;
44026;SDS011;29696;55.698;37.460;2023-04-03T00:13:11;59.10;;;34.40;;
44026;SDS011;29696;55.698;37.460;2023-04-03T00:15:38;29.73;;;19.73;;
44026;SDS011;29696;55.698;37.460;2023-04-03T00:18:05;30.57;;;17.93;;
44026;SDS011;29696;55.698;37.460;2023-04-03T00:20:32;18.27;;;12.53;;
44026;SDS011;29696;55.698;37.460;2023-04-03T00:22:59;24.77;;;15.67;;
44026;SDS011;29696;55.698;37.460;2023-04-03T00:25:26;18.00;;;12.50;;
44026;SDS011;29696;55.698;37.460;2023-04-03T00:27:52;21.63;;;12.97;;
44026;SDS011;29696;55.698;37.460;2023-04-03T00:30:19;22.33;;;13.73;;
44026;SDS011;29696;55.698;37.460;2023-04-03T00:32:48;26.83;;;13.13;;
44026;SDS011;29696;55.698;37.460;2023-04-03T00:35:15;23.77;;;10.70;;
44026;SDS011;29696;55.698;37.460;2023-04-03T00:37:43;20.33;;;11.57;;
44026;SDS011;29696;55.698;37.460;2023-04-03T00:40:09;26.27;;;12.83;;
44026;SDS011;29696;55.698;37.460;2023-04-03T00:42:38;15.43;;;9.23;;
44026;SDS011;29696;55.698;37.460;2023-04-03T00:50:31;19.63;;;12.93;;
44026;SDS011;29696;55.698;37.460;2023-04-03T00:53:00;15.83;;;10.20;;
44026;SDS011;29696;55.698;37.460;2023-04-03T00:55:27;16.40;;;11.80;;
44026;SDS011;29696;55.698;37.460;2023-04-03T00:57:53;19.07;;;12.17;;
44026;SDS011;29696;55.698;37.460;2023-04-03T01:00:23;19.50;;;10.70;;
44026;SDS011;29696;55.698;37.460;2023-04-03T01:02:51;19.43;;;9.70;;
44026;SDS011;29696;55.698;37.460;2023-04-03T01:05:18;10.10;;;7.43;;
44026;SDS011;29696;55.698;37.460;2023-04-03T01:07:46;14.77;;;8.03;;
44026;SDS011;29696;55.698;37.460;2023-04-03T01:10:15;11.17;;;7.50;;
44026;SDS011;29696;55.698;37.460;2023-04-03T01:12:46;10.30;;;7.87;;
44026;SDS011;29696;55.698;37.460;2023-04-03T01:15:18;8.50;;;7.47;;
44026;SDS011;29696;55.698;37.460;2023-04-03T01:17:50;10.68;;;6.78;;
44026;SDS011;29696;55.698;37.460;2023-04-03T01:26:46;8.73;;;7.70;;
44026;SDS011;29696;55.698;37.460;2023-04-03T01:29:12;9.30;;;7.17;;
44026;SDS011;29696;55.698;37.460;2023-04-03T01:34:31;12.33;;;7.00;;
44026;SDS011;29696;55.698;37.460;2023-04-03T01:36:58;15.60;;;9.57;;
44026;SDS011;29696;55.698;37.460;2023-04-03T01:39:25;11.43;;;7.80;;
44026;SDS011;29696;55.698;37.460;2023-04-03T01:41:51;8.97;;;6.80;;
44026;SDS011;29696;55.698;37.460;2023-04-03T01:44:28;9.77;;;7.33;;
44026;SDS011;29696;55.698;37.460;2023-04-03T01:46:55;10.00;;;7.77;;
44026;SDS011;29696;55.698;37.460;2023-04-03T01:49:23;14.03;;;8.70;;
44026;SDS011;29696;55.698;37.460;2023-04-03T01:51:50;10.67;;;7.47;;
44026;SDS011;29696;55.698;37.460;2023-04-03T01:54:16;14.10;;;8.17;;
44026;SDS011;29696;55.698;37.460;2023-04-03T01:56:43;11.73;;;8.97;;
44026;SDS011;29696;55.698;37.460;2023-04-03T01:59:10;11.20;;;7.80;;
44026;SDS011;29696;55.698;37.460;2023-04-03T02:01:36;13.70;;;7.93;;
44026;SDS011;29696;55.698;37.460;2023-04-03T02:04:03;10.37;;;8.13;;
44026;SDS011;29696;55.698;37.460;2023-04-03T02:06:29;10.27;;;8.13;;
44026;SDS011;29696;55.698;37.460;2023-04-03T02:08:55;12.57;;;9.07;;
44026;SDS011;29696;55.698;37.460;2023-04-03T02:11:22;16.30;;;8.43;;
44026;SDS011;29696;55.698;37.460;2023-04-03T02:13:48;15.87;;;9.37;;
44026;SDS011;29696;55.698;37.460;2023-04-03T02:16:14;13.80;;;8.73;;
44026;SDS011;29696;55.698;37.460;2023-04-03T02:18:41;9.80;;;7.53;;
44026;SDS011;29696;55.698;37.460;2023-04-03T02:21:07;12.77;;;9.03;;
44026;SDS011;29696;55.698;37.460;2023-04-03T02:23:34;18.10;;;11.57;;
44026;SDS011;29696;55.698;37.460;2023-04-03T02:26:07;10.60;;;9.10;;
44026;SDS011;29696;55.698;37.460;2023-04-03T02:28:37;14.27;;;9.30;;
44026;SDS011;29696;55.698;37.460;2023-04-03T02:31:04;12.83;;;10.00;;
44026;SDS011;29696;55.698;37.460;2023-04-03T02:33:32;13.80;;;10.03;;
44026;SDS011;29696;55.698;37.460;2023-04-03T02:36:00;19.63;;;9.17;;
44026;SDS011;29696;55.698;37.460;2023-04-03T02:38:26;17.43;;;10.80;;
44026;SDS011;29696;55.698;37.460;2023-04-03T02:40:57;11.77;;;9.80;;
44026;SDS011;29696;55.698;37.460;2023-04-03T02:43:26;16.50;;;10.60;;
44026;SDS011;29696;55.698;37.460;2023-04-03T02:45:53;18.17;;;11.27;;
44026;SDS011;29696;55.698;37.460;2023-04-03T02:48:20;12.40;;;9.93;;
44026;SDS011;29696;55.698;37.460;2023-04-03T02:50:46;14.30;;;10.20;;
44026;SDS011;29696;55.698;37.460;2023-04-03T02:53:12;16.57;;;10.33;;
44026;SDS011;29696;55.698;37.460;2023-04-03T02:55:39;14.73;;;11.77;;
44026;SDS011;29696;55.698;37.460;2023-04-03T02:58:05;16.80;;;11.20;;
44026;SDS011;29696;55.698;37.460;2023-04-03T03:00:32;15.20;;;10.23;;
44026;SDS011;29696;55.698;37.460;2023-04-03T03:02:59;15.50;;;10.70;;
44026;SDS011;29696;55.698;37.460;2023-04-03T03:05:26;15.27;;;11.10;;
44026;SDS011;29696;55.698;37.460;2023-04-03T03:07:53;13.37;;;9.73;;
44026;SDS011;29696;55.698;37.460;2023-04-03T03:10:20;14.20;;;9.50;;
44026;SDS011;29696;55.698;37.460;2023-04-03T03:12:47;16.50;;;9.83;;
44026;SDS011;29696;55.698;37.460;2023-04-03T03:15:13;13.17;;;10.00;;
44026;SDS011;29696;55.698;37.460;2023-04-03T03:17:41;11.13;;;8.40;;
44026;SDS011;29696;55.698;37.460;2023-04-03T03:20:07;15.50;;;9.70;;
44026;SDS011;29696;55.698;37.460;2023-04-03T03:22:34;18.50;;;11.10;;
44026;SDS011;29696;55.698;37.460;2023-04-03T03:25:02;11.00;;;9.03;;
44026;SDS011;29696;55.698;37.460;2023-04-03T03:27:29;10.87;;;9.03;;
44026;SDS011;29696;55.698;37.460;2023-04-03T03:29:56;18.93;;;9.83;;
44026;SDS011;29696;55.698;37.460;2023-04-03T03:32:22;11.10;;;9.73;;
44026;SDS011;29696;55.698;37.460;2023-04-03T03:34:49;13.83;;;9.60;;
44026;SDS011;29696;55.698;37.460;2023-04-03T03:37:15;12.13;;;9.63;;
44026;SDS011;29696;55.698;37.460;2023-04-03T03:39:41;15.20;;;9.90;;
44026;SDS011;29696;55.698;37.460;2023-04-03T03:42:08;12.40;;;9.23;;
44026;SDS011;29696;55.698;37.460;2023-04-03T03:44:34;13.33;;;9.53;;
44026;SDS011;29696;55.698;37.460;2023-04-03T03:47:01;14.73;;;8.63;;
44026;SDS011;29696;55.698;37.460;2023-04-03T03:49:29;14.87;;;9.00;;
44026;SDS011;29696;55.698;37.460;2023-04-03T03:51:55;13.20;;;8.40;;
44026;SDS011;29696;55.698;37.460;2023-04-03T03:54:22;14.83;;;8.60;;
44026;SDS011;29696;55.698;37.460;2023-04-03T03:56:49;12.70;;;9.07;;
44026;SDS011;29696;55.698;37.460;2023-04-03T03:59:16;12.97;;;9.40;;
44026;SDS011;29696;55.698;37.460;2023-04-03T04:01:43;10.33;;;9.07;;
44026;SDS011;29696;55.698;37.460;2023-04-03T04:04:09;16.60;;;9.93;;
44026;SDS011;29696;55.698;37.460;2023-04-03T04:06:35;12.40;;;8.77;;
44026;SDS011;29696;55.698;37.460;2023-04-03T04:09:05;15.40;;;10.10;;
44026;SDS011;29696;55.698;37.460;2023-04-03T04:11:31;9.90;;;8.47;;
44026;SDS011;29696;55.698;37.460;2023-04-03T04:13:59;18.00;;;9.50;;
44026;SDS011;29696;55.698;37.460;2023-04-03T04:16:28;15.60;;;9.40;;
44026;SDS011;29696;55.698;37.460;2023-04-03T04:18:57;13.80;;;11.03;;
44026;SDS011;29696;55.698;37.460;2023-04-03T04:21:24;21.80;;;9.77;;
44026;SDS011;29696;55.698;37.460;2023-04-03T04:23:52;15.03;;;11.27;;
44026;SDS011;29696;55.698;37.460;2023-04-03T04:26:20;12.13;;;9.80;;
44026;SDS011;29696;55.698;37.460;2023-04-03T04:28:46;14.23;;;10.17;;
44026;SDS011;29696;55.698;37.460;2023-04-03T04:31:12;18.07;;;10.27;;
44026;SDS011;29696;55.698;37.460;2023-04-03T04:33:39;16.53;;;11.67;;
44026;SDS011;29696;55.698;37.460;2023-04-03T04:36:09;20.57;;;11.30;;
44026;SDS011;29696;55.698;37.460;2023-04-03T04:38:36;18.00;;;11.00;;
44026;SDS011;29696;55.698;37.460;2023-04-03T04:41:03;13.63;;;11.00;;
44026;SDS011;29696;55.698;37.460;2023-04-03T04:43:30;15.83;;;12.40;;
44026;SDS011;29696;55.698;37.460;2023-04-03T04:46:00;20.87;;;11.50;;
44026;SDS011;29696;55.698;37.460;2023-04-03T04:48:34;12.97;;;10.20;;
44026;SDS011;29696;55.698;37.460;2023-04-03T04:51:01;20.47;;;11.83;;
44026;SDS011;29696;55.698;37.460;2023-04-03T04:53:28;16.17;;;11.77;;
44026;SDS011;29696;55.698;37.460;2023-04-03T04:55:54;19.47;;;13.20;;
44026;SDS011;29696;55.698;37.460;2023-04-03T04:58:21;15.60;;;11.23;;
44026;SDS011;29696;55.698;37.460;2023-04-03T05:00:48;18.90;;;12.27;;
44026;SDS011;29696;55.698;37.460;2023-04-03T05:03:15;15.60;;;11.80;;
44026;SDS011;29696;55.698;37.460;2023-04-03T05:05:42;13.97;;;10.93;;
44026;SDS011;29696;55.698;37.460;2023-04-03T05:08:09;16.07;;;11.87;;
44026;SDS011;29696;55.698;37.460;2023-04-03T05:10:37;21.20;;;13.10;;
44026;SDS011;29696;55.698;37.460;2023-04-03T05:13:04;15.63;;;11.17;;
44026;SDS011;29696;55.698;37.460;2023-04-03T05:15:31;15.97;;;12.20;;
44026;SDS011;29696;55.698;37.460;2023-04-03T05:17:57;19.73;;;11.83;;
44026;SDS011;29696;55.698;37.460;2023-04-03T05:20:24;19.00;;;12.77;;
44026;SDS011;29696;55.698;37.460;2023-04-03T05:22:51;16.83;;;13.37;;
44026;SDS011;29696;55.698;37.460;2023-04-03T05:25:18;14.67;;;12.33;;
44026;SDS011;29696;55.698;37.460;2023-04-03T05:27:44;13.73;;;11.00;;
44026;SDS011;29696;55.698;37.460;2023-04-03T05:30:11;17.20;;;11.07;;
44026;SDS011;29696;55.698;37.460;2023-04-03T05:32:40;15.60;;;11.30;;
44026;SDS011;29696;55.698;37.460;2023-04-03T05:35:20;14.47;;;10.93;;
44026;SDS011;29696;55.698;37.460;2023-04-03T05:37:50;16.53;;;11.77;;
44026;SDS011;29696;55.698;37.460;2023-04-03T05:40:17;19.43;;;12.27;;
44026;SDS011;29696;55.698;37.460;2023-04-03T05:42:46;22.00;;;14.23;;
44026;SDS011;29696;55.698;37.460;2023-04-03T05:45:14;16.60;;;10.60;;
44026;SDS011;29696;55.698;37.460;2023-04-03T05:47:40;19.23;;;12.07;;
44026;SDS011;29696;55.698;37.460;2023-04-03T05:50:07;19.40;;;13.33;;
44026;SDS011;29696;55.698;37.460;2023-04-03T05:52:38;17.10;;;12.73;;
44026;SDS011;29696;55.698;37.460;2023-04-03T05:55:09;16.23;;;12.40;;
44026;SDS011;29696;55.698;37.460;2023-04-03T05:57:36;18.93;;;13.63;;
44026;SDS011;29696;55.698;37.460;2023-04-03T06:00:04;22.17;;;11.77;;
44026;SDS011;29696;55.698;37.460;2023-04-03T06:02:40;20.47;;;12.17;;
44026;SDS011;29696;55.698;37.460;2023-04-03T06:05:11;21.93;;;13.27;;
44026;SDS011;29696;55.698;37.460;2023-04-03T06:07:40;21.37;;;12.10;;
44026;SDS011;29696;55.698;37.460;2023-04-03T06:10:07;16.13;;;10.97;;
44026;SDS011;29696;55.698;37.460;2023-04-03T06:12:34;17.37;;;12.53;;
44026;SDS011;29696;55.698;37.460;2023-04-03T06:15:01;19.73;;;13.23;;
44026;SDS011;29696;55.698;37.460;2023-04-03T06:17:29;25.17;;;13.27;;
44026;SDS011;29696;55.698;37.460;2023-04-03T06:19:56;18.37;;;11.53;;
44026;SDS011;29696;55.698;37.460;2023-04-03T06:22:24;19.63;;;12.03;;
44026;SDS011;29696;55.698;37.460;2023-04-03T06:24:56;21.50;;;12.77;;
44026;SDS011;29696;55.698;37.460;2023-04-03T06:27:23;26.50;;;13.30;;
44026;SDS011;29696;55.698;37.460;2023-04-03T06:29:50;22.30;;;13.77;;
44026;SDS011;29696;55.698;37.460;2023-04-03T06:32:16;24.30;;;14.50;;
44026;SDS011;29696;55.698;37.460;2023-04-03T06:34:42;39.30;;;17.43;;
44026;SDS011;29696;55.698;37.460;2023-04-03T06:37:15;26.67;;;14.33;;
44026;SDS011;29696;55.698;37.460;2023-04-03T06:39:44;27.07;;;13.97;;
44026;SDS011;29696;55.698;37.460;2023-04-03T06:42:11;22.70;;;12.73;;
44026;SDS011;29696;55.698;37.460;2023-04-03T06:44:46;27.53;;;12.97;;
44026;SDS011;29696;55.698;37.460;2023-04-03T06:47:14;18.60;;;12.50;;
44026;SDS011;29696;55.698;37.460;2023-04-03T06:49:41;19.67;;;12.87;;
44026;SDS011;29696;55.698;37.460;2023-04-03T06:52:08;17.00;;;14.10;;
44026;SDS011;29696;55.698;37.460;2023-04-03T06:54:35;25.10;;;13.37;;
44026;SDS011;29696;55.698;37.460;2023-04-03T06:57:02;24.93;;;13.77;;
44026;SDS011;29696;55.698;37.460;2023-04-03T06:59:28;18.03;;;12.57;;
44026;SDS011;29696;55.698;37.460;2023-04-03T07:01:55;16.40;;;11.83;;
44026;SDS011;29696;55.698;37.460;2023-04-03T07:04:21;22.93;;;12.23;;
44026;SDS011;29696;55.698;37.460;2023-04-03T07:06:47;19.07;;;14.97;;
44026;SDS011;29696;55.698;37.460;2023-04-03T07:09:14;23.07;;;14.30;;
44026;SDS011;29696;55.698;37.460;2023-04-03T07:11:41;15.27;;;11.63;;
44026;SDS011;29696;55.698;37.460;2023-04-03T07:14:07;30.07;;;14.27;;
44026;SDS011;29696;55.698;37.460;2023-04-03T07:16:34;17.83;;;12.10;;
44026;SDS011;29696;55.698;37.460;2023-04-03T07:19:01;20.10;;;14.10;;
44026;SDS011;29696;55.698;37.460;2023-04-03T07:21:28;26.40;;;14.63;;
44026;SDS011;29696;55.698;37.460;2023-04-03T07:23:55;23.30;;;12.25;;
44026;SDS011;29696;55.698;37.460;2023-04-03T07:26:22;29.58;;;14.07;;
44026;SDS011;29696;55.698;37.460;2023-04-03T07:28:48;19.00;;;12.73;;
44026;SDS011;29696;55.698;37.460;2023-04-03T07:31:16;23.50;;;13.75;;
44026;SDS011;29696;55.698;37.460;2023-04-03T07:33:44;28.25;;;13.20;;
44026;SDS011;29696;55.698;37.460;2023-04-03T07:36:11;16.42;;;11.95;;
44026;SDS011;29696;55.698;37.460;2023-04-03T07:38:42;30.02;;;13.52;;
44026;SDS011;29696;55.698;37.460;2023-04-03T07:41:11;24.33;;;13.52;;
44026;SDS011;29696;55.698;37.460;2023-04-03T07:43:40;24.73;;;13.50;;
44026;SDS011;29696;55.698;37.460;2023-04-03T07:46:08;20.98;;;13.10;;
44026;SDS011;29696;55.698;37.460;2023-04-03T07:48:35;28.73;;;12.85;;
44026;SDS011;29696;55.698;37.460;2023-04-03T07:51:02;38.25;;;15.63;;
44026;SDS011;29696;55.698;37.460;2023-04-03T07:53:29;29.50;;;13.05;;
44026;SDS011;29696;55.698;37.460;2023-04-03T07:55:57;23.55;;;12.25;;
44026;SDS011;29696;55.698;37.460;2023-04-03T07:58:24;22.17;;;12.65;;
44026;SDS011;29696;55.698;37.460;2023-04-03T08:00:51;25.27;;;13.98;;
44026;SDS011;29696;55.698;37.460;2023-04-03T08:03:18;34.80;;;13.52;;
44026;SDS011;29696;55.698;37.460;2023-04-03T08:05:45;26.80;;;11.73;;
44026;SDS011;29696;55.698;37.460;2023-04-03T08:08:14;26.52;;;12.82;;
44026;SDS011;29696;55.698;37.460;2023-04-03T08:10:43;30.98;;;12.35;;
44026;SDS011;29696;55.698;37.460;2023-04-03T08:13:09;26.98;;;11.63;;
44026;SDS011;29696;55.698;37.460;2023-04-03T08:15:36;33.47;;;13.40;;
44026;SDS011;29696;55.698;37.460;2023-04-03T08:18:02;26.10;;;13.00;;
44026;SDS011;29696;55.698;37.460;2023-04-03T08:20:29;26.70;;;12.73;;
44026;SDS011;29696;55.698;37.460;2023-04-03T08:22:56;17.55;;;11.57;;
44026;SDS011;29696;55.698;37.460;2023-04-03T08:25:22;17.48;;;9.57;;
44026;SDS011;29696;55.698;37.460;2023-04-03T08:27:48;24.75;;;10.75;;
44026;SDS011;29696;55.698;37.460;2023-04-03T08:30:15;17.17;;;10.75;;
44026;SDS011;29696;55.698;37.460;2023-04-03T08:32:41;21.92;;;11.65;;
44026;SDS011;29696;55.698;37.460;2023-04-03T08:35:08;22.25;;;11.57;;
44026;SDS011;29696;55.698;37.460;2023-04-03T08:37:35;23.38;;;11.15;;
44026;SDS011;29696;55.698;37.460;2023-04-03T08:40:04;24.05;;;13.88;;
44026;SDS011;29696;55.698;37.460;2023-04-03T08:45:50;22.80;;;12.15;;
44026;SDS011;29696;55.698;37.460;2023-04-03T08:48:39;22.75;;;13.38;;
44026;SDS011;29696;55.698;37.460;2023-04-03T08:51:12;20.30;;;13.10;;
44026;SDS011;29696;55.698;37.460;2023-04-03T08:53:44;23.15;;;10.82;;
44026;SDS011;29696;55.698;37.460;2023-04-03T08:56:22;28.67;;;13.40;;
44026;SDS011;29696;55.698;37.460;2023-04-03T08:58:58;26.85;;;13.25;;
44026;SDS011;29696;55.698;37.460;2023-04-03T09:01:36;31.42;;;14.63;;
44026;SDS011;29696;55.698;37.460;2023-04-03T09:06:38;18.55;;;12.02;;
44026;SDS011;29696;55.698;37.460;2023-04-03T09:12:23;18.40;;;12.85;;
44026;SDS011;29696;55.698;37.460;2023-04-03T09:14:56;25.88;;;13.05;;
44026;SDS011;29696;55.698;37.460;2023-04-03T09:24:09;42.03;;;13.45;;
44026;SDS011;29696;55.698;37.460;2023-04-03T09:26:56;18.33;;;11.65;;
44026;SDS011;29696;55.698;37.460;2023-04-03T09:29:28;22.83;;;12.32;;
44026;SDS011;29696;55.698;37.460;2023-04-03T09:31:56;28.00;;;15.02;;
44026;SDS011;29696;55.698;37.460;2023-04-03T09:34:27;28.42;;;15.35;;
44026;SDS011;29696;55.698;37.460;2023-04-03T09:37:02;24.52;;;13.95;;
44026;SDS011;29696;55.698;37.460;2023-04-03T09:42:54;22.90;;;13.05;;
44026;SDS011;29696;55.698;37.460;2023-04-03T09:45:28;26.33;;;13.18;;
44026;SDS011;29696;55.698;37.460;2023-04-03T09:48:12;21.95;;;12.88;;
44026;SDS011;29696;55.698;37.460;2023-04-03T09:53:42;14.52;;;11.15;;
44026;SDS011;29696;55.698;37.460;2023-04-03T10:01:59;25.17;;;14.70;;
44026;SDS011;29696;55.698;37.460;2023-04-03T10:04:39;20.42;;;12.57;;
44026;SDS011;29696;55.698;37.460;2023-04-03T10:13:06;24.58;;;14.32;;
44026;SDS011;29696;55.698;37.460;2023-04-03T10:15:44;26.40;;;14.73;;
44026;SDS011;29696;55.698;37.460;2023-04-03T10:28:20;19.35;;;12.77;;
44026;SDS011;29696;55.698;37.460;2023-04-03T10:34:45;27.08;;;13.90;;
44026;SDS011;29696;55.698;37.460;2023-04-03T10:43:40;25.58;;;13.75;;
44026;SDS011;29696;55.698;37.460;2023-04-03T10:46:22;29.70;;;15.77;;
44026;SDS011;29696;55.698;37.460;2023-04-03T10:55:43;19.50;;;13.00;;
44026;SDS011;29696;55.698;37.460;2023-04-03T10:58:30;24.38;;;14.35;;
44026;SDS011;29696;55.698;37.460;2023-04-03T11:01:02;19.73;;;13.55;;
44026;SDS011;29696;55.698;37.460;2023-04-03T11:03:42;26.95;;;14.73;;
44026;SDS011;29696;55.698;37.460;2023-04-03T11:06:13;19.45;;;11.93;;
44026;SDS011;29696;55.698;37.460;2023-04-03T11:12:09;20.15;;;12.63;;
44026;SDS011;29696;55.698;37.460;2023-04-03T11:14:56;24.65;;;12.23;;
44026;SDS011;29696;55.698;37.460;2023-04-03T11:20:30;22.63;;;13.05;;
44026;SDS011;29696;55.698;37.460;2023-04-03T11:23:04;18.98;;;11.70;;
44026;SDS011;29696;55.698;37.460;2023-04-03T11:25:39;22.17;;;12.93;;
44026;SDS011;29696;55.698;37.460;2023-04-03T11:28:11;20.33;;;13.18;;
44026;SDS011;29696;55.698;37.460;2023-04-03T11:30:44;29.33;;;13.40;;
44026;SDS011;29696;55.698;37.460;2023-04-03T11:37:05;20.70;;;11.65;;
44026;SDS011;29696;55.698;37.460;2023-04-03T11:39:39;19.27;;;11.80;;
44026;SDS011;29696;55.698;37.460;2023-04-03T11:58:23;30.83;;;11.63;;
44026;SDS011;29696;55.698;37.460;2023-04-03T12:00:54;24.77;;;11.25;;
44026;SDS011;29696;55.698;37.460;2023-04-03T12:07:23;24.15;;;10.70;;
44026;SDS011;29696;55.698;37.460;2023-04-03T12:12:42;17.42;;;10.57;;
44026;SDS011;29696;55.698;37.460;2023-04-03T12:15:16;26.10;;;11.20;;
44026;SDS011;29696;55.698;37.460;2023-04-03T12:24:45;20.90;;;10.65;;
44026;SDS011;29696;55.698;37.460;2023-04-03T12:36:36;19.70;;;11.45;;
44026;SDS011;29696;55.698;37.460;2023-04-03T12:46:23;20.10;;;12.30;;
44026;SDS011;29696;55.698;37.460;2023-04-03T12:48:56;13.65;;;9.85;;
44026;SDS011;29696;55.698;37.460;2023-04-03T12:51:34;18.23;;;11.60;;
44026;SDS011;29696;55.698;37.460;2023-04-03T13:00:18;21.83;;;10.18;;
44026;SDS011;29696;55.698;37.460;2023-04-03T13:03:06;22.58;;;11.52;;
44026;SDS011;29696;55.698;37.460;2023-04-03T13:05:45;13.88;;;9.77;;
44026;SDS011;29696;55.698;37.460;2023-04-03T13:08:12;17.77;;;8.85;;
44026;SDS011;29696;55.698;37.460;2023-04-03T13:13:36;11.23;;;6.85;;
44026;SDS011;29696;55.698;37.460;2023-04-03T13:16:08;7.50;;;6.43;;
44026;SDS011;29696;55.698;37.460;2023-04-03T13:18:36;32.85;;;6.75;;
44026;SDS011;29696;55.698;37.460;2023-04-03T13:21:04;16.33;;;7.10;;
44026;SDS011;29696;55.698;37.460;2023-04-03T13:23:43;8.50;;;6.27;;
44026;SDS011;29696;55.698;37.460;2023-04-03T13:26:17;15.20;;;7.93;;
44026;SDS011;29696;55.698;37.460;2023-04-03T13:28:46;14.17;;;7.77;;
44026;SDS011;29696;55.698;37.460;2023-04-03T13:34:10;20.07;;;7.63;;
44026;SDS011;29696;55.698;37.460;2023-04-03T13:37:05;11.50;;;7.30;;
44026;SDS011;29696;55.698;37.460;2023-04-03T13:39:33;12.47;;;6.40;;
44026;SDS011;29696;55.698;37.460;2023-04-03T13:42:22;25.23;;;6.87;;
44026;SDS011;29696;55.698;37.460;2023-04-03T13:44:49;16.87;;;6.50;;
44026;SDS011;29696;55.698;37.460;2023-04-03T13:47:38;9.07;;;6.30;;
44026;SDS011;29696;55.698;37.460;2023-04-03T13:53:02;11.40;;;6.73;;
44026;SDS011;29696;55.698;37.460;2023-04-03T13:55:37;7.10;;;5.83;;
44026;SDS011;29696;55.698;37.460;2023-04-03T13:58:32;12.27;;;6.32;;
44026;SDS011;29696;55.698;37.460;2023-04-03T14:01:10;12.10;;;5.27;;
44026;SDS011;29696;55.698;37.460;2023-04-03T14:03:51;8.20;;;4.93;;
44026;SDS011;29696;55.698;37.460;2023-04-03T14:06:37;10.83;;;5.77;;
44026;SDS011;29696;55.698;37.460;2023-04-03T14:09:04;12.83;;;6.00;;
44026;SDS011;29696;55.698;37.460;2023-04-03T14:11:30;13.53;;;6.93;;
44026;SDS011;29696;55.698;37.460;2023-04-03T14:13:58;10.03;;;6.33;;
44026;SDS011;29696;55.698;37.460;2023-04-03T14:16:29;9.47;;;6.00;;
44026;SDS011;29696;55.698;37.460;2023-04-03T14:18:58;7.97;;;5.83;;
44026;SDS011;29696;55.698;37.460;2023-04-03T14:21:24;14.67;;;6.23;;
44026;SDS011;29696;55.698;37.460;2023-04-03T14:23:51;9.10;;;5.53;;
44026;SDS011;29696;55.698;37.460;2023-04-03T14:26:19;13.13;;;7.47;;
44026;SDS011;29696;55.698;37.460;2023-04-03T14:28:49;9.03;;;6.00;;
44026;SDS011;29696;55.698;37.460;2023-04-03T14:31:17;8.67;;;6.03;;
44026;SDS011;29696;55.698;37.460;2023-04-03T14:33:45;12.10;;;6.93;;
44026;SDS011;29696;55.698;37.460;2023-04-03T14:36:20;10.57;;;7.30;;
44026;SDS011;29696;55.698;37.460;2023-04-03T14:38:51;10.90;;;7.37;;
44026;SDS011;29696;55.698;37.460;2023-04-03T14:41:20;12.07;;;7.00;;
44026;SDS011;29696;55.698;37.460;2023-04-03T14:43:49;9.33;;;6.73;;
44026;SDS011;29696;55.698;37.460;2023-04-03T14:46:22;18.80;;;7.27;;
44026;SDS011;29696;55.698;37.460;2023-04-03T14:48:52;14.27;;;7.70;;
44026;SDS011;29696;55.698;37.460;2023-04-03T14:51:19;14.07;;;7.00;;
44026;SDS011;29696;55.698;37.460;2023-04-03T14:53:45;13.93;;;6.97;;
44026;SDS011;29696;55.698;37.460;2023-04-03T14:56:13;15.53;;;7.73;;
44026;SDS011;29696;55.698;37.460;2023-04-03T14:58:43;15.17;;;7.83;;
44026;SDS011;29696;55.698;37.460;2023-04-03T15:01:10;22.00;;;8.97;;
44026;SDS011;29696;55.698;37.460;2023-04-03T15:03:37;10.53;;;7.57;;
44026;SDS011;29696;55.698;37.460;2023-04-03T15:06:04;18.67;;;8.43;;
44026;SDS011;29696;55.698;37.460;2023-04-03T15:08:30;11.77;;;7.33;;
44026;SDS011;29696;55.698;37.460;2023-04-03T15:10:57;9.43;;;6.03;;
44026;SDS011;29696;55.698;37.460;2023-04-03T15:13:24;17.03;;;6.50;;
44026;SDS011;29696;55.698;37.460;2023-04-03T15:15:51;15.63;;;7.07;;
44026;SDS011;29696;55.698;37.460;2023-04-03T15:18:19;10.77;;;8.37;;
44026;SDS011;29696;55.698;37.460;2023-04-03T15:20:47;11.10;;;6.07;;
44026;SDS011;29696;55.698;37.460;2023-04-03T15:23:14;25.33;;;9.20;;
44026;SDS011;29696;55.698;37.460;2023-04-03T15:25:45;18.10;;;8.00;;
44026;SDS011;29696;55.698;37.460;2023-04-03T15:28:56;21.53;;;8.33;;
44026;SDS011;29696;55.698;37.460;2023-04-03T15:31:08;17.87;;;7.80;;
44026;SDS011;29696;55.698;37.460;2023-04-03T15:33:34;13.83;;;7.63;;
44026;SDS011;29696;55.698;37.460;2023-04-03T15:36:02;12.50;;;8.43;;
44026;SDS011;29696;55.698;37.460;2023-04-03T15:38:29;16.40;;;8.27;;
44026;SDS011;29696;55.698;37.460;2023-04-03T15:40:56;15.07;;;8.07;;
44026;SDS011;29696;55.698;37.460;2023-04-03T15:43:23;25.90;;;10.23;;
44026;SDS011;29696;55.698;37.460;2023-04-03T15:45:49;15.93;;;8.37;;
44026;SDS011;29696;55.698;37.460;2023-04-03T15:48:17;22.03;;;8.20;;
44026;SDS011;29696;55.698;37.460;2023-04-03T15:50:44;13.10;;;7.40;;
44026;SDS011;29696;55.698;37.460;2023-04-03T15:53:10;23.17;;;8.10;;
44026;SDS011;29696;55.698;37.460;2023-04-03T15:55:37;19.03;;;8.93;;
44026;SDS011;29696;55.698;37.460;2023-04-03T15:58:04;20.50;;;8.60;;
44026;SDS011;29696;55.698;37.460;2023-04-03T16:00:30;26.73;;;8.87;;
44026;SDS011;29696;55.698;37.460;2023-04-03T16:02:58;25.37;;;8.47;;
44026;SDS011;29696;55.698;37.460;2023-04-03T16:05:30;19.20;;;9.23;;
44026;SDS011;29696;55.698;37.460;2023-04-03T16:07:57;11.83;;;6.23;;
44026;SDS011;29696;55.698;37.460;2023-04-03T16:10:26;17.67;;;8.70;;
44026;SDS011;29696;55.698;37.460;2023-04-03T16:12:53;19.13;;;8.03;;
44026;SDS011;29696;55.698;37.460;2023-04-03T16:15:19;16.43;;;8.13;;
44026;SDS011;29696;55.698;37.460;2023-04-03T16:17:46;13.63;;;7.97;;
44026;SDS011;29696;55.698;37.460;2023-04-03T16:20:14;13.53;;;8.43;;
44026;SDS011;29696;55.698;37.460;2023-04-03T16:22:41;18.33;;;8.83;;
44026;SDS011;29696;55.698;37.460;2023-04-03T16:25:08;20.50;;;8.40;;
44026;SDS011;29696;55.698;37.460;2023-04-03T16:27:35;13.93;;;8.47;;
44026;SDS011;29696;55.698;37.460;2023-04-03T16:30:02;16.10;;;8.27;;
44026;SDS011;29696;55.698;37.460;2023-04-03T16:32:30;18.27;;;8.03;;
44026;SDS011;29696;55.698;37.460;2023-04-03T16:34:57;13.17;;;7.40;;
44026;SDS011;29696;55.698;37.460;2023-04-03T16:37:24;18.60;;;10.37;;
44026;SDS011;29696;55.698;37.460;2023-04-03T16:39:51;25.70;;;8.63;;
44026;SDS011;29696;55.698;37.460;2023-04-03T16:42:17;24.43;;;8.77;;
44026;SDS011;29696;55.698;37.460;2023-04-03T16:44:43;14.50;;;7.87;;
44026;SDS011;29696;55.698;37.460;2023-04-03T16:47:10;13.33;;;8.47;;
44026;SDS011;29696;55.698;37.460;2023-04-03T16:49:38;14.43;;;8.03;;
44026;SDS011;29696;55.698;37.460;2023-04-03T16:52:05;16.77;;;8.57;;
44026;SDS011;29696;55.698;37.460;2023-04-03T16:54:31;14.00;;;9.00;;